createdAt,value
2019-02-08T00:01:26.133Z,5.83
2019-02-08T00:06:32.837Z,5.80
2019-02-08T00:11:39.208Z,5.43
2019-02-08T00:16:45.953Z,4.97
2019-02-08T00:21:52.975Z,4.77
2019-02-08T00:26:59.583Z,5.70
2019-02-08T00:32:05.730Z,4.83
2019-02-08T00:37:11.763Z,5.43
2019-02-08T00:42:18.229Z,6.03
2019-02-08T00:47:26.814Z,6.03
2019-02-08T00:52:34.544Z,6.20
2019-02-08T00:57:41.161Z,5.17
2019-02-08T01:02:48.344Z,5.33
2019-02-08T01:07:56.368Z,5.67
2019-02-08T01:13:04.006Z,5.97
2019-02-08T01:18:10.912Z,6.57
2019-02-08T01:23:18.222Z,5.67
2019-02-08T01:28:25.231Z,4.80
2019-02-08T01:33:34.142Z,5.77
2019-02-08T01:38:41.404Z,6.93
2019-02-08T01:43:47.248Z,5.83
2019-02-08T01:48:54.674Z,6.47
2019-02-08T01:54:02.007Z,6.60
2019-02-08T01:59:08.303Z,6.10
2019-02-08T02:04:16.399Z,6.30
2019-02-08T02:09:23.581Z,6.87
2019-02-08T02:14:31.090Z,7.03
2019-02-08T02:19:38.739Z,6.70
2019-02-08T02:24:45.716Z,6.73
2019-02-08T02:29:53.320Z,6.90
2019-02-08T02:35:00.897Z,7.17
2019-02-08T02:40:08.973Z,8.07
2019-02-08T02:45:19.839Z,5.93
2019-02-08T02:50:26.241Z,6.57
2019-02-08T02:55:32.696Z,6.47
2019-02-08T03:00:42.610Z,7.00
2019-02-08T03:05:50.196Z,6.30
2019-02-08T03:10:57.344Z,5.60
2019-02-08T03:16:04.609Z,4.67
2019-02-08T03:21:11.784Z,4.50
2019-02-08T03:26:19.250Z,2.77
2019-02-08T03:31:26.902Z,3.27
2019-02-08T03:36:33.943Z,2.90
2019-02-08T03:41:41.178Z,5.37
2019-02-08T03:46:48.543Z,3.87
2019-02-08T03:51:55.985Z,4.73
2019-02-08T03:57:03.638Z,5.40
2019-02-08T04:02:11.372Z,5.23
2019-02-08T04:07:18.462Z,5.83
2019-02-08T04:12:24.588Z,5.40
2019-02-08T04:17:31.704Z,6.13
2019-02-08T04:22:37.756Z,7.33
2019-02-08T04:27:44.525Z,8.43
2019-02-08T04:32:50.800Z,7.03
2019-02-08T04:37:58.479Z,7.07
2019-02-08T04:43:05.767Z,7.50
2019-02-08T04:48:12.762Z,6.97
2019-02-08T04:53:20.362Z,7.20
2019-02-08T04:58:35.136Z,6.80
2019-02-08T05:03:35.501Z,8.10
2019-02-08T05:08:42.864Z,6.93
2019-02-08T05:13:49.311Z,8.60
2019-02-08T05:18:56.465Z,7.67
2019-02-08T05:24:03.540Z,6.77
2019-02-08T05:29:10.548Z,8.17
2019-02-08T05:34:18.580Z,6.17
2019-02-08T05:39:26.378Z,6.83
2019-02-08T05:44:33.689Z,6.73
2019-02-08T05:49:40.282Z,6.57
2019-02-08T05:54:54.243Z,7.30
2019-02-08T05:59:55.122Z,8.10
2019-02-08T06:05:21.110Z,7.63
2019-02-08T06:10:28.214Z,6.80
2019-02-08T06:15:35.690Z,7.73
2019-02-08T06:20:43.957Z,8.40
2019-02-08T06:25:50.378Z,9.63
2019-02-08T06:30:56.154Z,8.27
2019-02-08T06:36:03.698Z,8.43
2019-02-08T06:41:10.258Z,9.10
2019-02-08T06:46:18.975Z,9.27
2019-02-08T06:51:25.111Z,7.37
2019-02-08T06:56:58.318Z,7.57
2019-02-08T07:02:24.126Z,8.87
2019-02-08T07:07:45.248Z,9.13
2019-02-08T07:13:16.516Z,9.77
2019-02-08T07:18:42.240Z,12.10
2019-02-08T07:23:54.556Z,8.53
2019-02-08T07:29:10.155Z,9.70
2019-02-08T07:34:41.565Z,10.20
2019-02-08T07:40:13.056Z,9.20
2019-02-08T07:45:49.249Z,9.53
2019-02-08T07:51:27.988Z,10.23
2019-02-08T07:56:58.340Z,10.37
2019-02-08T08:02:24.929Z,11.17
2019-02-08T08:07:39.325Z,10.57
2019-02-08T08:13:14.406Z,10.17
2019-02-08T08:18:48.852Z,10.83
2019-02-08T08:24:18.339Z,10.20
2019-02-08T08:29:54.321Z,9.73
2019-02-08T08:35:26.752Z,10.07
2019-02-08T08:41:10.789Z,10.80
2019-02-08T08:47:08.091Z,11.50
2019-02-08T08:52:58.511Z,10.30
2019-02-08T08:58:24.829Z,10.07
2019-02-08T09:03:50.524Z,10.07
2019-02-08T09:09:47.976Z,9.93
2019-02-08T09:15:29.788Z,8.40
2019-02-08T09:21:17.213Z,8.57
2019-02-08T09:27:23.467Z,6.23
2019-02-08T09:33:14.219Z,6.70
2019-02-08T09:38:45.497Z,6.13
2019-02-08T09:44:44.590Z,6.10
2019-02-08T09:50:12.280Z,6.30
2019-02-08T09:56:23.637Z,4.63
2019-02-08T10:02:17.822Z,5.20
2019-02-08T10:08:02.798Z,3.97
2019-02-08T10:14:03.868Z,4.23
2019-02-08T10:19:52.975Z,4.53
2019-02-08T10:25:34.806Z,3.77
2019-02-08T10:31:28.286Z,4.60
2019-02-08T10:37:10.615Z,3.77
2019-02-08T10:43:03.119Z,3.47
2019-02-08T10:48:47.736Z,3.10
2019-02-08T10:54:19.285Z,2.50
2019-02-08T10:59:54.477Z,2.37
2019-02-08T11:05:46.487Z,2.47
2019-02-08T11:11:42.637Z,2.40
2019-02-08T11:17:32.447Z,2.12
2019-02-08T11:22:38.875Z,2.02
2019-02-08T11:27:44.793Z,2.00
2019-02-08T11:32:50.883Z,2.17
2019-02-08T11:37:56.929Z,1.70
2019-02-08T11:48:44.729Z,1.87
2019-02-08T11:53:51.339Z,1.60
2019-02-08T11:59:02.947Z,1.60
2019-02-08T12:04:15.145Z,2.15
2019-02-08T12:09:21.409Z,1.85
2019-02-08T12:14:30.565Z,1.50
2019-02-08T12:19:37.930Z,1.60
2019-02-08T12:24:45.976Z,1.95
2019-02-08T12:29:53.066Z,1.70
2019-02-08T12:35:00.368Z,1.62
2019-02-08T12:40:07.479Z,1.45
2019-02-08T12:45:13.665Z,1.35
2019-02-08T12:50:20.040Z,1.40
2019-02-08T12:55:26.060Z,1.50
2019-02-08T13:00:33.297Z,1.22
2019-02-08T13:05:40.112Z,1.37
2019-02-08T13:10:46.228Z,1.20
2019-02-08T13:15:54.191Z,1.30
2019-02-08T13:21:00.639Z,1.02
2019-02-08T13:26:06.681Z,1.00
2019-02-08T13:31:12.993Z,1.35
2019-02-08T13:36:18.916Z,1.00
2019-02-08T13:41:25.989Z,1.32
2019-02-08T13:46:33.271Z,1.07
2019-02-08T13:51:40.599Z,1.12
2019-02-08T13:56:47.880Z,1.60
2019-02-08T14:01:54.105Z,1.40
2019-02-08T14:07:01.073Z,1.30
2019-02-08T14:12:08.483Z,1.20
2019-02-08T14:17:17.321Z,1.20
2019-02-08T14:22:24.868Z,1.22
2019-02-08T14:27:30.735Z,1.45
2019-02-08T14:32:37.848Z,1.53
2019-02-08T14:37:43.751Z,1.80
2019-02-08T14:42:50.180Z,1.63
2019-02-08T14:47:58.322Z,2.67
2019-02-08T14:53:04.843Z,3.40
2019-02-08T14:58:12.386Z,3.50
2019-02-08T15:03:19.627Z,3.70
2019-02-08T15:08:26.042Z,3.80
2019-02-08T15:13:33.111Z,3.20
2019-02-08T15:18:41.363Z,3.83
2019-02-08T15:23:47.735Z,7.83
2019-02-08T15:28:55.166Z,2.87
2019-02-08T15:34:02.891Z,2.30
2019-02-08T15:39:11.918Z,2.40
2019-02-08T15:44:19.712Z,2.87
2019-02-08T15:49:25.934Z,2.90
2019-02-08T15:54:33.850Z,2.23
2019-02-08T15:59:40.572Z,2.57
2019-02-08T16:04:47.983Z,2.87
2019-02-08T16:09:54.055Z,2.83
2019-02-08T16:15:03.166Z,3.20
2019-02-08T16:20:09.770Z,3.57
2019-02-08T16:25:17.133Z,2.93
2019-02-08T16:30:25.858Z,3.97
2019-02-08T16:35:32.033Z,3.27
2019-02-08T16:40:38.532Z,4.00
2019-02-08T16:45:45.255Z,3.60
2019-02-08T16:50:54.051Z,2.90
2019-02-08T16:56:00.569Z,2.83
2019-02-08T17:01:07.345Z,2.70
2019-02-08T17:06:14.463Z,2.10
2019-02-08T17:11:21.951Z,2.40
2019-02-08T17:16:28.627Z,2.53
2019-02-08T17:21:34.820Z,2.57
2019-02-08T17:26:41.798Z,2.87
2019-02-08T17:31:48.300Z,1.83
2019-02-08T17:36:55.257Z,3.70
2019-02-08T17:42:03.809Z,2.80
2019-02-08T17:47:09.779Z,2.90
2019-02-08T17:52:17.518Z,2.80
2019-02-08T17:57:25.878Z,2.87
2019-02-08T18:02:32.774Z,1.80
2019-02-08T18:07:40.039Z,2.40
2019-02-08T18:12:46.145Z,2.30
2019-02-08T18:17:56.357Z,2.27
2019-02-08T18:23:03.698Z,2.30
2019-02-08T18:28:11.278Z,3.20
2019-02-08T18:33:19.620Z,2.10
2019-02-08T18:38:27.266Z,2.23
2019-02-08T18:43:36.124Z,1.90
2019-02-08T18:48:43.161Z,2.97
2019-02-08T18:53:51.358Z,1.00
2019-02-08T18:58:59.479Z,1.13
2019-02-08T19:04:06.870Z,2.50
2019-02-08T19:09:13.655Z,2.40
2019-02-08T19:14:21.152Z,1.87
2019-02-08T19:19:29.409Z,2.43
2019-02-08T19:24:36.038Z,1.80
2019-02-08T19:29:42.510Z,3.27
2019-02-08T19:34:49.263Z,2.70
2019-02-08T19:39:58.880Z,2.57
2019-02-08T19:45:06.767Z,2.10
2019-02-08T19:50:22.750Z,1.87
2019-02-08T19:55:33.221Z,2.07
2019-02-08T20:00:40.876Z,2.40
2019-02-08T20:05:47.984Z,2.43
2019-02-08T20:11:09.550Z,3.30
2019-02-08T20:16:24.668Z,3.27
2019-02-08T20:21:34.649Z,4.13
2019-02-08T20:26:42.501Z,3.33
2019-02-08T20:31:49.196Z,3.87
2019-02-08T20:36:55.526Z,2.40
2019-02-08T20:42:02.249Z,2.87
2019-02-08T20:47:08.955Z,2.37
2019-02-08T20:52:15.754Z,2.43
2019-02-08T20:57:22.350Z,2.00
2019-02-08T21:02:29.771Z,2.73
2019-02-08T21:07:37.685Z,3.23
2019-02-08T21:12:44.270Z,2.90
2019-02-08T21:17:50.571Z,3.30
2019-02-08T21:22:57.620Z,3.03
2019-02-08T21:28:03.744Z,3.13
2019-02-08T21:33:13.193Z,3.00
2019-02-08T21:38:20.416Z,3.40
2019-02-08T21:43:27.721Z,3.10
2019-02-08T21:48:35.933Z,3.77
2019-02-08T21:53:42.124Z,3.67
2019-02-08T21:58:50.130Z,4.70
2019-02-08T22:03:56.419Z,6.50
2019-02-08T22:09:04.525Z,8.67
2019-02-08T22:14:11.261Z,6.03
2019-02-08T22:19:17.820Z,4.90
2019-02-08T22:24:24.631Z,4.40
2019-02-08T22:29:31.115Z,5.60
2019-02-08T22:34:55.869Z,5.87
2019-02-08T22:40:02.685Z,4.43
2019-02-08T22:45:18.100Z,4.07
2019-02-08T22:50:25.573Z,4.50
2019-02-08T22:55:33.176Z,3.90
2019-02-08T23:01:28.101Z,4.77
2019-02-08T23:06:35.947Z,4.30
2019-02-08T23:11:43.308Z,4.53
2019-02-08T23:16:49.369Z,4.70
2019-02-08T23:21:57.001Z,4.20
2019-02-08T23:27:03.103Z,4.50
2019-02-08T23:32:10.234Z,5.07
2019-02-08T23:37:25.714Z,4.57
2019-02-08T23:42:25.994Z,4.70
2019-02-08T23:47:34.622Z,4.73
2019-02-08T23:52:40.452Z,4.67
2019-02-08T23:57:46.552Z,5.20
